createdAt,value
2023-02-07T00:04:30.570Z,22.55
2023-02-07T00:09:32.313Z,22.80
2023-02-07T00:14:34.215Z,21.75
2023-02-07T00:19:36.406Z,22.45
2023-02-07T00:24:38.232Z,21.50
2023-02-07T00:29:39.936Z,20.92
2023-02-07T00:34:42.094Z,19.95
2023-02-07T00:39:43.755Z,20.88
2023-02-07T00:44:45.466Z,22.08
2023-02-07T00:49:47.114Z,22.25
2023-02-07T00:54:48.888Z,23.42
2023-02-07T00:59:50.618Z,20.75
2023-02-07T01:04:52.586Z,21.40
2023-02-07T01:09:54.309Z,22.52
2023-02-07T01:14:56.101Z,21.05
2023-02-07T01:19:59.236Z,23.42
2023-02-07T01:25:00.921Z,23.27
2023-02-07T01:30:03.246Z,22.92
2023-02-07T01:35:05.304Z,22.42
2023-02-07T01:40:08.145Z,21.15
2023-02-07T01:45:18.841Z,22.00
2023-02-07T01:50:22.634Z,21.27
2023-02-07T01:55:30.437Z,21.42
2023-02-07T02:05:35.669Z,19.75
2023-02-07T02:11:08.267Z,20.50
2023-02-07T02:16:31.080Z,21.38
2023-02-07T02:21:38.689Z,21.50
2023-02-07T02:26:49.688Z,22.17
2023-02-07T02:31:57.406Z,21.80
2023-02-07T02:37:02.475Z,21.88
2023-02-07T02:42:19.455Z,22.08
2023-02-07T02:47:24.060Z,20.08
2023-02-07T02:52:48.592Z,20.48
2023-02-07T02:58:21.122Z,20.27
2023-02-07T03:03:41.310Z,19.98
2023-02-07T03:08:58.202Z,21.08
2023-02-07T03:14:23.572Z,19.88
2023-02-07T03:19:29.729Z,19.50
2023-02-07T03:24:34.656Z,19.07
2023-02-07T03:29:39.562Z,19.88
2023-02-07T03:34:53.093Z,19.13
2023-02-07T03:39:55.022Z,20.48
2023-02-07T03:44:58.840Z,18.73
2023-02-07T03:50:00.653Z,18.27
2023-02-07T03:55:02.322Z,18.65
2023-02-07T04:00:06.060Z,19.00
2023-02-07T04:05:13.943Z,18.58
2023-02-07T04:10:15.757Z,17.23
2023-02-07T04:15:17.515Z,18.30
2023-02-07T04:20:19.313Z,16.77
2023-02-07T04:25:20.954Z,19.55
2023-02-07T04:30:26.270Z,16.45
2023-02-07T04:35:28.037Z,16.95
2023-02-07T04:40:29.715Z,16.95
2023-02-07T04:45:31.527Z,17.08
2023-02-07T04:50:33.244Z,16.75
2023-02-07T04:55:37.418Z,17.13
2023-02-07T05:00:39.321Z,16.60
2023-02-07T05:05:42.572Z,16.55
2023-02-07T05:10:44.287Z,17.35
2023-02-07T05:15:46.322Z,17.02
2023-02-07T05:20:48.017Z,20.73
2023-02-07T05:25:49.824Z,21.48
2023-02-07T05:30:56.505Z,19.73
2023-02-07T05:36:01.538Z,21.55
2023-02-07T05:41:03.188Z,18.17
2023-02-07T05:46:05.050Z,17.52
2023-02-07T05:51:06.716Z,17.13
2023-02-07T05:56:08.376Z,18.30
2023-02-07T06:01:10.051Z,22.35
2023-02-07T06:06:11.864Z,17.83
2023-02-07T06:11:13.540Z,17.52
2023-02-07T06:16:15.291Z,16.60
2023-02-07T06:21:17.105Z,16.25
2023-02-07T06:26:18.813Z,18.98
2023-02-07T06:31:20.841Z,16.92
2023-02-07T06:36:22.652Z,17.00
2023-02-07T06:41:24.544Z,18.55
2023-02-07T06:46:26.418Z,18.27
2023-02-07T06:51:28.243Z,17.17
2023-02-07T06:56:30.345Z,16.42
2023-02-07T07:01:32.236Z,17.10
2023-02-07T07:06:34.048Z,17.85
2023-02-07T07:11:39.054Z,17.77
2023-02-07T07:16:41.098Z,65.65
2023-02-07T07:21:42.902Z,18.25
2023-02-07T07:26:49.737Z,19.30
2023-02-07T07:31:51.892Z,32.95
2023-02-07T07:36:56.719Z,36.20
2023-02-07T07:41:58.633Z,34.80
2023-02-07T07:47:20.574Z,19.50
2023-02-07T07:52:22.381Z,20.48
2023-02-07T07:57:28.126Z,18.55
2023-02-07T08:02:30.119Z,24.90
2023-02-07T08:07:31.840Z,23.63
2023-02-07T08:12:33.553Z,20.40
2023-02-07T08:17:37.260Z,18.70
2023-02-07T08:22:39.771Z,20.00
2023-02-07T08:27:41.483Z,19.92
2023-02-07T08:32:43.341Z,22.35
2023-02-07T08:37:45.092Z,18.92
2023-02-07T08:42:46.831Z,18.30
2023-02-07T08:47:48.575Z,17.92
2023-02-07T08:52:50.478Z,19.42
2023-02-07T08:57:52.601Z,19.17
2023-02-07T09:02:54.353Z,17.35
2023-02-07T09:07:56.110Z,18.00
2023-02-07T09:12:58.200Z,17.92
2023-02-07T09:17:59.879Z,19.15
2023-02-07T09:23:19.801Z,18.77
2023-02-07T09:28:22.539Z,19.23
2023-02-07T09:33:24.364Z,19.55
2023-02-07T09:38:26.151Z,19.23
2023-02-07T09:44:09.898Z,19.77
2023-02-07T09:49:35.067Z,23.02
2023-02-07T09:54:41.795Z,23.23
2023-02-07T10:00:18.865Z,19.63
2023-02-07T10:10:45.884Z,20.20
2023-02-07T10:16:03.047Z,22.05
2023-02-07T10:26:40.323Z,22.55
2023-02-07T10:31:47.760Z,24.05
2023-02-07T10:36:52.949Z,22.15
2023-02-07T10:41:57.417Z,22.58
2023-02-07T10:47:05.144Z,24.70
2023-02-07T10:52:35.164Z,24.23
2023-02-07T10:57:37.535Z,23.85
2023-02-07T11:02:48.984Z,21.88
2023-02-07T11:08:03.064Z,21.20
2023-02-07T11:13:12.548Z,25.52
2023-02-07T11:18:55.545Z,20.88
2023-02-07T11:24:05.285Z,19.30
2023-02-07T11:29:15.059Z,20.80
2023-02-07T11:34:25.773Z,19.10
2023-02-07T11:39:27.589Z,16.67
2023-02-07T11:44:30.968Z,16.00
2023-02-07T11:49:38.524Z,16.00
2023-02-07T11:54:42.396Z,17.30
2023-02-07T11:59:53.360Z,17.83
2023-02-07T12:04:56.687Z,19.65
2023-02-07T12:10:02.893Z,20.08
2023-02-07T12:15:14.307Z,21.05
2023-02-07T12:20:42.111Z,20.15
2023-02-07T12:25:54.388Z,21.65
2023-02-07T12:31:01.188Z,21.85
2023-02-07T12:36:11.264Z,21.20
2023-02-07T12:41:24.406Z,22.67
2023-02-07T12:46:37.078Z,21.65
2023-02-07T12:51:56.080Z,21.40
2023-02-07T12:57:19.636Z,22.10
2023-02-07T13:02:37.877Z,23.02
2023-02-07T13:07:44.702Z,24.08
2023-02-07T13:12:55.960Z,23.92
2023-02-07T13:18:06.541Z,23.13
2023-02-07T13:23:21.096Z,22.40
2023-02-07T13:28:27.291Z,21.95
2023-02-07T13:33:37.980Z,20.90
2023-02-07T13:38:54.748Z,21.38
2023-02-07T13:44:10.093Z,19.50
2023-02-07T13:49:12.162Z,19.42
2023-02-07T13:54:31.819Z,17.75
2023-02-07T13:59:41.192Z,20.63
2023-02-07T14:04:57.486Z,17.92
2023-02-07T14:10:00.380Z,19.63
2023-02-07T14:15:38.932Z,19.75
2023-02-07T14:20:41.404Z,18.63
2023-02-07T14:25:45.512Z,20.02
2023-02-07T14:30:53.647Z,21.38
2023-02-07T14:36:24.471Z,20.88
2023-02-07T14:41:36.540Z,22.50
2023-02-07T14:46:48.658Z,20.65
2023-02-07T14:51:58.242Z,23.65
2023-02-07T14:57:31.853Z,24.77
2023-02-07T15:02:39.198Z,26.20
2023-02-07T15:07:43.506Z,25.73
2023-02-07T15:12:45.299Z,27.10
2023-02-07T15:17:47.855Z,28.13
2023-02-07T15:22:56.249Z,28.73
2023-02-07T15:28:10.909Z,27.80
2023-02-07T15:33:19.920Z,22.02
2023-02-07T15:38:24.732Z,29.38
2023-02-07T15:43:36.998Z,28.25
2023-02-07T15:49:07.764Z,28.27
2023-02-07T15:54:17.361Z,29.15
2023-02-07T15:59:22.530Z,30.95
2023-02-07T16:04:26.974Z,31.30
2023-02-07T16:09:44.017Z,30.38
2023-02-07T16:14:45.842Z,31.60
2023-02-07T16:19:47.584Z,30.42
2023-02-07T16:24:50.923Z,32.00
2023-02-07T16:29:54.448Z,33.28
2023-02-07T16:34:59.906Z,32.20
2023-02-07T16:40:02.041Z,30.95
2023-02-07T16:45:04.002Z,32.67
2023-02-07T16:50:13.472Z,47.63
2023-02-07T16:55:19.287Z,54.47
2023-02-07T17:00:26.286Z,49.63
2023-02-07T17:05:28.118Z,43.22
2023-02-07T17:10:32.313Z,35.88
2023-02-07T17:15:34.530Z,34.45
2023-02-07T17:20:36.535Z,35.92
2023-02-07T17:25:38.502Z,42.67
2023-02-07T17:30:43.776Z,39.25
2023-02-07T17:35:45.556Z,43.75
2023-02-07T17:40:47.447Z,37.85
2023-02-07T17:45:49.307Z,35.97
2023-02-07T17:50:51.271Z,38.28
2023-02-07T17:55:53.040Z,41.22
2023-02-07T18:00:54.694Z,37.55
2023-02-07T18:05:57.706Z,40.72
2023-02-07T18:11:02.179Z,41.60
2023-02-07T18:16:04.292Z,41.17
2023-02-07T18:21:06.513Z,40.13
2023-02-07T18:26:10.860Z,37.05
2023-02-07T18:31:18.651Z,40.83
2023-02-07T18:36:22.557Z,41.08
2023-02-07T18:41:26.438Z,39.38
2023-02-07T18:46:28.702Z,38.70
2023-02-07T18:51:30.482Z,39.65
2023-02-07T18:56:35.398Z,39.20
2023-02-07T19:01:37.569Z,39.53
2023-02-07T19:06:39.519Z,37.92
2023-02-07T19:11:41.486Z,38.75
2023-02-07T19:16:44.436Z,41.30
2023-02-07T19:21:46.348Z,40.63
2023-02-07T19:26:52.983Z,39.22
2023-02-07T19:32:00.208Z,41.88
2023-02-07T19:37:02.636Z,44.90
2023-02-07T19:42:04.612Z,39.67
2023-02-07T19:47:06.492Z,42.10
2023-02-07T19:52:08.743Z,44.63
2023-02-07T19:57:11.401Z,43.67
2023-02-07T20:02:14.195Z,45.15
2023-02-07T20:07:16.058Z,42.90
2023-02-07T20:12:18.440Z,44.47
2023-02-07T20:17:20.533Z,44.08
2023-02-07T20:22:22.519Z,43.28
2023-02-07T20:27:24.408Z,44.47
2023-02-07T20:32:26.576Z,42.55
2023-02-07T20:37:28.539Z,40.97
2023-02-07T20:42:33.241Z,42.28
2023-02-07T20:47:35.071Z,46.70
2023-02-07T20:52:39.860Z,48.58
2023-02-07T20:57:42.424Z,46.55
2023-02-07T21:02:44.274Z,46.03
2023-02-07T21:07:46.059Z,46.67
2023-02-07T21:12:47.943Z,45.80
2023-02-07T21:17:49.944Z,44.88
2023-02-07T21:22:52.160Z,45.33
2023-02-07T21:27:54.127Z,47.70
2023-02-07T21:32:56.004Z,44.90
2023-02-07T21:37:57.905Z,44.58
2023-02-07T21:42:59.668Z,46.58
2023-02-07T21:48:01.711Z,45.22
2023-02-07T21:53:04.021Z,44.35
2023-02-07T21:58:05.883Z,47.88
2023-02-07T22:03:08.888Z,44.88
2023-02-07T22:08:12.002Z,45.47
2023-02-07T22:13:14.091Z,46.90
2023-02-07T22:18:16.515Z,45.67
2023-02-07T22:23:18.696Z,45.58
2023-02-07T22:28:20.441Z,45.35
2023-02-07T22:33:22.653Z,44.03
2023-02-07T22:38:24.351Z,43.25
2023-02-07T22:43:26.067Z,45.85
2023-02-07T22:48:27.735Z,45.60
2023-02-07T22:53:29.441Z,42.05
2023-02-07T22:58:31.783Z,43.05
2023-02-07T23:03:34.595Z,44.47
2023-02-07T23:08:36.334Z,42.55
2023-02-07T23:13:38.319Z,42.03
2023-02-07T23:18:40.525Z,41.63
2023-02-07T23:23:42.823Z,42.13
2023-02-07T23:28:45.128Z,39.65
2023-02-07T23:33:47.058Z,40.00
2023-02-07T23:38:49.906Z,40.08
2023-02-07T23:43:51.553Z,40.10
2023-02-07T23:48:53.903Z,35.78
2023-02-07T23:53:55.684Z,39.05
2023-02-07T23:58:57.462Z,39.50
